Time;durP1;ratioP1;P1;durP2;ratioP2;P2;SDS_P1;SDS_P2;PMS_P1;PMS_P2;Temp;Humidity;BMP_temperature;BMP_pressure;BME280_temperature;BME280_humidity;BME280_pressure;Samples;Min_cycle;Max_cycle;Signal;HPM_P1;HPM_P2
2022/04/15 00:00:43;;;;;;;11.35;4.13;;;7.30;57.40;;;;;;5051818;28;20037;-78
2022/04/15 00:03:11;;;;;;;12.25;4.55;;;7.30;57.80;;;;;;5053774;28;20059;-76
2022/04/15 00:05:37;;;;;;;17.70;4.53;;;7.20;58.60;;;;;;5052722;28;20486;-77
2022/04/15 00:08:13;;;;;;;13.00;4.80;;;7.20;59.30;;;;;;5037928;28;20120;-77
2022/04/15 00:10:40;;;;;;;9.45;4.43;;;7.20;60.10;;;;;;5033682;28;20364;-77
2022/04/15 00:13:11;;;;;;;17.33;5.07;;;7.20;60.30;;;;;;5033856;28;20022;-76
2022/04/15 00:15:38;;;;;;;16.40;5.03;;;7.20;60.60;;;;;;5035673;28;20036;-77
2022/04/15 00:18:04;;;;;;;20.65;5.60;;;7.20;60.60;;;;;;5034756;28;20401;-77
2022/04/15 00:20:30;;;;;;;15.18;5.28;;;7.10;60.60;;;;;;5035995;28;20430;-75
2022/04/15 00:22:58;;;;;;;17.65;6.80;;;7.20;60.90;;;;;;5053385;28;20112;-76
2022/04/15 00:25:25;;;;;;;14.70;4.90;;;7.20;60.80;;;;;;5053396;28;20021;-77
2022/04/15 00:27:51;;;;;;;16.63;4.83;;;7.20;60.90;;;;;;5035929;28;20429;-77
2022/04/15 00:30:18;;;;;;;12.40;4.85;;;7.20;60.90;;;;;;5053461;28;20308;-77
2022/04/15 00:32:43;;;;;;;20.42;5.60;;;7.20;61.10;;;;;;5034323;28;20068;-77
2022/04/15 00:35:10;;;;;;;16.98;5.38;;;7.30;61.30;;;;;;5053245;28;20060;-76
2022/04/15 00:37:36;;;;;;;29.10;6.63;;;7.30;61.40;;;;;;5053303;28;20360;-77
2022/04/15 00:40:04;;;;;;;14.32;5.78;;;7.30;61.50;;;;;;5033062;28;20021;-76
2022/04/15 00:42:30;;;;;;;14.00;6.03;;;7.30;61.60;;;;;;5052888;28;20041;-77
2022/04/15 00:44:57;;;;;;;13.05;6.13;;;7.30;61.70;;;;;;5053037;28;20096;-76
2022/04/15 00:47:56;;;;;;;14.67;5.73;;;7.30;62.00;;;;;;5052930;28;20163;-77
2022/04/15 00:50:31;;;;;;;21.15;6.60;;;7.40;62.30;;;;;;5051822;28;20071;-77
2022/04/15 00:52:59;;;;;;;20.73;5.82;;;7.40;62.50;;;;;;5052845;28;20021;-74
2022/04/15 00:55:25;;;;;;;18.45;5.95;;;7.40;62.80;;;;;;5052720;28;20462;-75
2022/04/15 00:57:55;;;;;;;22.27;6.70;;;7.40;62.90;;;;;;5040699;28;20430;-77
2022/04/15 01:00:22;;;;;;;15.13;7.13;;;7.40;63.10;;;;;;5033062;28;20388;-77
2022/04/15 01:02:48;;;;;;;21.55;7.75;;;7.40;63.30;;;;;;5032608;28;20052;-77
2022/04/15 01:05:15;;;;;;;16.00;6.97;;;7.40;63.50;;;;;;5032662;28;20445;-76
2022/04/15 01:07:46;;;;;;;17.15;6.68;;;7.40;63.80;;;;;;5049748;28;20082;-77
2022/04/15 01:10:13;;;;;;;23.02;7.05;;;7.40;63.80;;;;;;5052411;28;20036;-77
2022/04/15 01:12:45;;;;;;;19.83;7.28;;;7.40;64.00;;;;;;5052355;28;20081;-77
2022/04/15 01:15:13;;;;;;;15.73;6.40;;;7.40;64.80;;;;;;5052597;28;20124;-77
2022/04/15 01:17:39;;;;;;;17.67;6.90;;;7.40;64.30;;;;;;5052322;28;20052;-77
2022/04/15 01:20:08;;;;;;;17.38;7.20;;;7.40;64.30;;;;;;5052775;28;20482;-79
2022/04/15 01:22:40;;;;;;;20.05;7.70;;;7.40;64.50;;;;;;5013707;28;20053;-78
2022/04/15 01:25:07;;;;;;;20.50;7.50;;;7.30;64.60;;;;;;5052300;28;20025;-77
2022/04/15 01:27:38;;;;;;;22.63;6.90;;;7.30;64.80;;;;;;5052319;28;20070;-78
2022/04/15 01:30:05;;;;;;;18.58;7.28;;;7.20;65.10;;;;;;5052271;28;20021;-76
2022/04/15 01:32:31;;;;;;;;;;;7.20;65.30;;;;;;5052942;28;20025;-77
2022/04/15 01:34:57;;;;;;;19.48;6.03;;;7.10;64.80;;;;;;5052069;28;19917;-77
2022/04/15 01:37:23;;;;;;;15.02;6.85;;;7.00;65.40;;;;;;5052560;28;20391;-77
2022/04/15 01:39:50;;;;;;;13.18;7.07;;;7.00;65.80;;;;;;5030752;28;20036;-78
2022/04/15 01:42:17;;;;;;;19.40;7.43;;;7.00;66.10;;;;;;5033028;28;20495;-78
2022/04/15 01:44:44;;;;;;;18.98;8.32;;;7.00;66.10;;;;;;5033018;28;20033;-77
2022/04/15 01:47:11;;;;;;;12.93;7.07;;;7.00;66.10;;;;;;5032206;28;20053;-77
2022/04/15 01:49:37;;;;;;;14.55;7.22;;;7.00;66.90;;;;;;5033179;28;20482;-77
2022/04/15 01:52:04;;;;;;;22.15;8.05;;;7.00;66.30;;;;;;5051885;28;20448;-79
2022/04/15 01:54:30;;;;;;;14.70;7.07;;;7.00;66.20;;;;;;5033420;28;20021;-78
2022/04/15 01:56:57;;;;;;;15.95;6.97;;;7.10;66.10;;;;;;5051907;28;20027;-77
2022/04/15 01:59:23;;;;;;;18.00;7.40;;;7.10;66.20;;;;;;5051844;28;20104;-78
2022/04/15 02:01:49;;;;;;;15.93;8.05;;;7.10;66.20;;;;;;5051520;28;20123;-77
2022/04/15 02:04:16;;;;;;;13.57;6.75;;;7.10;66.30;;;;;;5052085;28;20119;-78
2022/04/15 02:06:41;;;;;;;23.88;7.45;;;7.10;66.30;;;;;;5053134;28;20017;-78
2022/04/15 02:09:07;;;;;;;16.35;7.53;;;7.20;66.30;;;;;;5052378;28;20033;-78
2022/04/15 02:11:34;;;;;;;16.77;7.55;;;7.20;66.20;;;;;;5050745;28;20525;-77
2022/04/15 02:14:00;;;;;;;18.73;7.80;;;7.20;66.10;;;;;;5051892;28;20021;-78
2022/04/15 02:16:25;;;;;;;20.67;7.00;;;7.20;66.10;;;;;;5033966;28;20040;-78
2022/04/15 02:18:51;;;;;;;21.95;7.10;;;7.20;66.20;;;;;;5051560;28;20025;-77
2022/04/15 02:21:17;;;;;;;29.30;8.95;;;7.20;66.20;;;;;;5051873;28;20029;-79
2022/04/15 02:23:43;;;;;;;16.00;7.05;;;7.20;66.20;;;;;;5051895;28;20103;-77
2022/04/15 02:26:08;;;;;;;13.90;7.68;;;7.20;66.30;;;;;;5051988;28;20497;-77
2022/04/15 02:28:34;;;;;;;14.45;7.50;;;7.20;66.30;;;;;;5053584;28;20082;-78
2022/04/15 02:31:00;;;;;;;13.30;7.60;;;7.10;66.40;;;;;;5057937;28;20487;-77
2022/04/15 02:33:25;;;;;;;18.27;7.88;;;7.10;66.50;;;;;;5038990;28;20041;-76
2022/04/15 02:35:51;;;;;;;16.85;6.32;;;7.10;66.70;;;;;;5057123;28;20029;-78
2022/04/15 02:38:17;;;;;;;23.55;7.60;;;7.10;66.80;;;;;;5054615;28;20368;-77
2022/04/15 02:40:43;;;;;;;15.32;7.45;;;7.00;66.90;;;;;;5054018;28;20085;-77
2022/04/15 02:43:10;;;;;;;15.35;8.00;;;7.00;67.00;;;;;;5055095;28;20041;-78
2022/04/15 02:45:36;;;;;;;17.23;6.88;;;7.00;66.90;;;;;;5055325;28;20023;-79
2022/04/15 02:48:03;;;;;;;17.92;8.20;;;7.00;67.00;;;;;;5055126;28;20033;-79
2022/04/15 02:50:29;;;;;;;16.52;7.72;;;7.00;67.00;;;;;;5055019;28;20023;-78
2022/04/15 02:52:54;;;;;;;14.05;7.22;;;6.90;67.10;;;;;;5055073;28;20501;-77
2022/04/15 02:55:20;;;;;;;11.77;6.25;;;6.90;67.30;;;;;;5053963;28;20490;-78
2022/04/15 02:57:46;;;;;;;17.33;7.18;;;6.80;67.30;;;;;;5055074;28;20073;-77
2022/04/15 03:00:14;;;;;;;14.20;7.32;;;6.80;67.50;;;;;;5054829;28;20025;-77
2022/04/15 03:02:39;;;;;;;;;;;6.80;67.60;;;;;;5055419;28;20040;-77
2022/04/15 03:05:09;;;;;;;18.30;6.82;;;6.70;67.20;;;;;;5055414;28;19905;-77
2022/04/15 03:07:38;;;;;;;16.15;6.85;;;6.70;67.60;;;;;;5055362;28;20025;-77
2022/04/15 03:10:05;;;;;;;23.33;7.35;;;6.70;67.90;;;;;;5055517;28;20111;-77
2022/04/15 03:12:35;;;;;;;20.30;7.75;;;6.60;67.90;;;;;;5054003;28;20087;-77
2022/04/15 03:15:02;;;;;;;19.27;6.93;;;6.60;68.00;;;;;;5037229;28;20486;-78
2022/04/15 03:17:28;;;;;;;17.35;7.38;;;6.60;68.00;;;;;;5054902;28;20107;-78
2022/04/15 03:19:54;;;;;;;22.08;8.32;;;6.50;68.00;;;;;;5054973;28;20045;-77
2022/04/15 03:22:20;;;;;;;18.95;7.20;;;6.60;68.10;;;;;;5054890;28;20052;-78
2022/04/15 03:24:47;;;;;;;23.38;7.93;;;6.60;68.10;;;;;;5054700;28;20025;-78
2022/04/15 03:27:14;;;;;;;21.02;8.57;;;6.60;68.10;;;;;;5053610;28;20414;-79
2022/04/15 03:29:40;;;;;;;10.75;6.20;;;6.60;68.00;;;;;;5054730;28;20033;-78
2022/04/15 03:32:06;;;;;;;20.95;7.43;;;6.70;67.90;;;;;;5054402;28;20035;-77
2022/04/15 03:34:32;;;;;;;17.38;8.07;;;6.80;67.90;;;;;;5054394;28;20048;-78
2022/04/15 03:36:58;;;;;;;23.83;6.95;;;6.90;67.80;;;;;;5054198;28;20033;-78
2022/04/15 03:39:23;;;;;;;23.67;7.90;;;6.90;67.50;;;;;;5054434;28;20087;-77
2022/04/15 03:41:49;;;;;;;16.95;7.13;;;7.00;67.40;;;;;;5054728;28;20029;-77
2022/04/15 03:44:15;;;;;;;21.95;8.10;;;7.10;67.20;;;;;;5054423;28;20075;-77
2022/04/15 03:46:41;;;;;;;25.70;8.35;;;7.10;67.00;;;;;;5054612;28;20060;-78
2022/04/15 03:49:07;;;;;;;19.88;8.65;;;7.20;66.90;;;;;;5054281;28;20044;-78
2022/04/15 03:51:34;;;;;;;21.80;8.40;;;7.20;66.70;;;;;;5054442;28;20036;-79
2022/04/15 03:54:00;;;;;;;23.27;8.43;;;7.30;66.50;;;;;;5054177;28;20017;-77
2022/04/15 03:56:26;;;;;;;19.00;8.55;;;7.50;66.50;;;;;;5053939;28;20040;-77
2022/04/15 03:58:52;;;;;;;21.47;7.63;;;7.80;66.10;;;;;;5054157;28;20044;-77
2022/04/15 04:01:18;;;;;;;18.88;7.38;;;8.10;65.40;;;;;;5053319;28;20087;-78
2022/04/15 04:03:43;;;;;;;24.67;7.68;;;8.40;64.30;;;;;;5054127;28;20033;-78
2022/04/15 04:06:09;;;;;;;20.23;8.02;;;8.60;62.40;;;;;;5053936;28;20025;-78
2022/04/15 04:08:35;;;;;;;19.58;7.63;;;8.80;62.30;;;;;;5053850;28;20429;-79
2022/04/15 04:11:01;;;;;;;17.42;7.07;;;8.90;61.60;;;;;;5053656;28;20021;-79
2022/04/15 04:13:26;;;;;;;15.77;6.75;;;9.00;60.90;;;;;;5053805;28;20021;-78
2022/04/15 04:15:52;;;;;;;21.88;8.45;;;9.00;60.40;;;;;;5035964;28;20025;-77
2022/04/15 04:18:20;;;;;;;15.35;7.65;;;9.10;60.40;;;;;;5052906;28;20086;-77
2022/04/15 04:20:50;;;;;;;11.98;7.53;;;9.20;60.40;;;;;;5054034;28;20540;-76
2022/04/15 04:23:16;;;;;;;23.60;7.53;;;9.20;60.20;;;;;;5053190;28;20040;-76
2022/04/15 04:25:42;;;;;;;14.57;8.02;;;9.30;59.90;;;;;;5035603;28;20021;-77
2022/04/15 04:28:07;;;;;;;16.20;6.05;;;9.20;59.60;;;;;;5053952;28;20025;-79
2022/04/15 04:30:33;;;;;;;17.48;6.13;;;9.10;58.90;;;;;;5036899;28;20025;-77
2022/04/15 04:32:59;;;;;;;17.77;5.93;;;9.00;59.00;;;;;;5053894;28;20127;-79
2022/04/15 04:35:25;;;;;;;21.10;5.60;;;9.00;59.00;;;;;;5052575;28;20036;-77
2022/04/15 04:37:51;;;;;;;18.05;6.95;;;9.00;59.00;;;;;;5046498;28;20036;-78
2022/04/15 04:40:17;;;;;;;17.25;6.57;;;8.90;59.00;;;;;;5042001;28;20025;-78
2022/04/15 04:42:44;;;;;;;22.15;6.75;;;8.90;59.20;;;;;;5052983;28;20037;-79
2022/04/15 04:45:10;;;;;;;13.38;6.20;;;9.00;58.90;;;;;;5027043;28;20451;-82
2022/04/15 04:47:41;;;;;;;23.17;7.35;;;8.90;58.70;;;;;;5039868;28;20068;-78
2022/04/15 04:50:11;;;;;;;20.50;6.90;;;8.90;58.70;;;;;;5052975;28;20021;-77
2022/04/15 04:52:38;;;;;;;18.90;6.43;;;9.00;58.90;;;;;;5052233;28;20570;-78
2022/04/15 04:55:05;;;;;;;23.33;7.47;;;9.10;58.90;;;;;;5052718;28;20052;-79
2022/04/15 04:57:31;;;;;;;16.30;6.47;;;9.20;58.60;;;;;;5052724;28;20514;-78
2022/04/15 04:59:57;;;;;;;18.08;5.38;;;9.30;58.00;;;;;;5052757;28;20104;-77
2022/04/15 05:02:23;;;;;;;11.10;4.97;;;9.40;57.50;;;;;;5051579;28;20072;-78
2022/04/15 05:04:49;;;;;;;9.38;5.95;;;9.40;57.00;;;;;;5034701;28;20447;-77
2022/04/15 05:07:15;;;;;;;12.85;5.40;;;9.50;56.80;;;;;;5017445;28;20116;-79
2022/04/15 05:09:43;;;;;;;15.77;5.32;;;9.50;57.00;;;;;;5052312;28;20378;-78
2022/04/15 05:12:12;;;;;;;11.55;5.55;;;9.60;56.90;;;;;;5052305;28;20033;-78
2022/04/15 05:14:38;;;;;;;18.88;6.28;;;9.70;56.60;;;;;;5052220;28;20122;-77
2022/04/15 05:17:05;;;;;;;14.10;6.13;;;9.70;56.50;;;;;;5052333;28;20485;-77
2022/04/15 05:19:31;;;;;;;13.85;5.07;;;9.80;56.30;;;;;;5030475;28;20032;-79
2022/04/15 05:21:57;;;;;;;12.93;4.78;;;9.80;56.10;;;;;;5032369;28;20124;-79
2022/04/15 05:24:23;;;;;;;20.40;5.53;;;9.80;56.10;;;;;;5032404;28;20096;-79
2022/04/15 05:26:48;;;;;;;13.57;4.90;;;9.90;56.10;;;;;;5031959;28;20113;-78
2022/04/15 05:29:14;;;;;;;17.33;6.25;;;10.00;56.10;;;;;;5032192;28;20483;-80
2022/04/15 05:31:40;;;;;;;25.20;6.60;;;10.20;55.70;;;;;;5032104;28;20025;-78
2022/04/15 05:34:06;;;;;;;12.20;4.03;;;10.30;55.50;;;;;;5033223;28;20465;-77
2022/04/15 05:36:32;;;;;;;11.15;4.07;;;10.50;55.30;;;;;;5052471;28;20033;-77
2022/04/15 05:38:58;;;;;;;11.10;3.80;;;10.70;54.80;;;;;;5051889;28;20457;-78
2022/04/15 05:41:23;;;;;;;11.68;4.00;;;10.80;54.00;;;;;;5034397;28;20024;-77
2022/04/15 05:43:49;;;;;;;13.43;4.60;;;10.70;53.70;;;;;;5051898;28;20025;-80
2022/04/15 05:46:15;;;;;;;9.27;4.10;;;10.60;54.00;;;;;;5051818;28;20032;-78
2022/04/15 05:48:41;;;;;;;13.60;4.88;;;10.60;54.20;;;;;;5051708;28;20394;-80
2022/04/15 05:51:06;;;;;;;16.83;4.45;;;10.60;54.10;;;;;;5051027;28;20020;-78
2022/04/15 05:53:32;;;;;;;9.77;4.10;;;10.70;54.10;;;;;;5051859;28;20123;-79
2022/04/15 05:55:58;;;;;;;14.02;5.18;;;10.80;54.10;;;;;;5051893;28;20028;-79
2022/04/15 05:58:25;;;;;;;18.85;4.75;;;10.90;53.80;;;;;;5051407;28;20035;-78
2022/04/15 06:00:51;;;;;;;15.35;4.53;;;11.10;53.70;;;;;;5033714;28;20132;-80
2022/04/15 06:03:20;;;;;;;14.77;5.20;;;11.30;52.70;;;;;;5052837;28;20446;-81
2022/04/15 06:05:47;;;;;;;12.45;4.50;;;11.50;52.70;;;;;;5037184;28;20046;-80
2022/04/15 06:08:13;;;;;;;14.73;5.00;;;11.80;52.40;;;;;;5056290;28;20043;-79
2022/04/15 06:10:39;;;;;;;13.63;4.72;;;12.00;51.40;;;;;;5056159;28;20052;-80
2022/04/15 06:13:09;;;;;;;10.52;4.63;;;12.20;51.50;;;;;;5055720;28;20411;-80
2022/04/15 06:15:41;;;;;;;12.98;5.75;;;12.70;50.00;;;;;;5055780;28;20103;-82
2022/04/15 06:18:07;;;;;;;15.27;4.07;;;13.40;49.10;;;;;;5055982;28;20419;-79
2022/04/15 06:20:33;;;;;;;11.52;4.97;;;14.20;46.90;;;;;;5044193;28;20029;-79
2022/04/15 06:22:58;;;;;;;11.23;4.80;;;14.90;45.90;;;;;;5043937;28;20121;-78
2022/04/15 06:25:24;;;;;;;13.50;4.03;;;15.70;44.50;;;;;;5037701;28;20568;-78
2022/04/15 06:27:51;;;;;;;15.95;4.60;;;16.50;42.50;;;;;;5039021;28;20025;-81
2022/04/15 06:30:19;;;;;;;11.48;4.95;;;17.40;41.00;;;;;;5044246;28;20029;-78
2022/04/15 06:32:44;;;;;;;20.50;4.88;;;18.20;38.70;;;;;;5037798;28;20029;-79
2022/04/15 06:35:10;;;;;;;10.50;3.75;;;18.50;37.40;;;;;;5037642;28;20021;-79
2022/04/15 06:37:36;;;;;;;18.95;4.97;;;19.00;36.50;;;;;;5037622;28;20070;-82
2022/04/15 06:40:02;;;;;;;12.38;3.75;;;19.60;35.60;;;;;;5039115;28;20380;-81
2022/04/15 06:42:30;;;;;;;10.02;3.47;;;20.10;33.40;;;;;;5035281;28;20040;-79
2022/04/15 06:44:57;;;;;;;8.82;3.70;;;19.70;33.20;;;;;;5035222;28;20093;-79
2022/04/15 06:47:22;;;;;;;13.65;4.53;;;19.30;33.70;;;;;;5021808;28;20141;-79
2022/04/15 06:49:48;;;;;;;5.22;3.13;;;19.50;34.10;;;;;;5038346;28;20053;-84
2022/04/15 06:52:15;;;;;;;10.23;3.97;;;19.80;33.20;;;;;;5034692;28;20023;-81
2022/04/15 06:54:42;;;;;;;14.25;4.60;;;19.90;33.20;;;;;;5042984;28;20105;-79
2022/04/15 06:57:09;;;;;;;15.00;4.90;;;20.30;33.10;;;;;;5055574;28;20033;-81
2022/04/15 06:59:35;;;;;;;17.80;4.10;;;21.10;32.60;;;;;;5054721;28;20036;-83
2022/04/15 07:02:01;;;;;;;12.75;3.95;;;21.80;31.90;;;;;;5054723;28;20040;-81
2022/04/15 07:04:27;;;;;;;10.48;4.00;;;22.10;31.10;;;;;;5054622;28;20078;-81
2022/04/15 07:06:56;;;;;;;13.00;4.20;;;22.10;30.90;;;;;;5054564;28;20406;-79
2022/04/15 07:09:22;;;;;;;15.18;4.25;;;22.00;31.10;;;;;;5054504;28;20029;-79
2022/04/15 07:11:48;;;;;;;12.77;4.55;;;21.80;30.90;;;;;;5053784;28;20064;-79
2022/04/15 07:14:14;;;;;;;15.48;5.88;;;21.60;31.10;;;;;;5053880;28;20037;-79
2022/04/15 07:16:40;;;;;;;12.32;3.83;;;21.40;31.30;;;;;;5054563;28;20380;-78
2022/04/15 07:19:07;;;;;;;9.50;4.63;;;21.20;31.50;;;;;;5056106;28;20052;-80
2022/04/15 07:21:36;;;;;;;;;;;20.80;31.40;;;;;;5056400;28;20394;-79
2022/04/15 07:24:02;;;;;;;10.38;3.35;;;20.20;33.10;;;;;;5055264;28;19909;-78
2022/04/15 07:26:28;;;;;;;9.52;3.13;;;20.00;32.60;;;;;;5054971;28;20025;-78
2022/04/15 07:28:54;;;;;;;7.68;3.47;;;20.10;32.00;;;;;;5054674;28;20091;-79
2022/04/15 07:31:20;;;;;;;6.97;2.83;;;19.70;32.10;;;;;;5055752;28;20053;-80
2022/04/15 07:33:46;;;;;;;12.95;3.53;;;20.00;32.10;;;;;;5054065;28;20045;-77
2022/04/15 07:36:42;;;;;;;11.15;3.50;;;20.70;32.00;;;;;;5054276;28;20100;-81
2022/04/15 07:39:11;;;;;;;12.95;3.95;;;22.00;30.70;;;;;;5054341;28;20068;-80
2022/04/15 07:41:38;;;;;;;13.77;4.95;;;23.50;30.00;;;;;;5053010;28;20025;-80
2022/04/15 07:44:11;;;;;;;5.93;3.00;;;24.50;29.10;;;;;;5054196;28;20163;-80
2022/04/15 07:46:40;;;;;;;10.43;3.25;;;24.80;27.90;;;;;;5054161;28;20048;-81
2022/04/15 07:49:07;;;;;;;8.30;2.45;;;24.10;28.20;;;;;;5035956;28;20486;-79
2022/04/15 07:51:34;;;;;;;6.70;2.70;;;23.80;28.00;;;;;;5053893;28;20054;-81
2022/04/15 07:54:00;;;;;;;11.02;2.83;;;23.50;28.60;;;;;;5053838;28;20107;-79
2022/04/15 07:56:25;;;;;;;11.43;2.75;;;23.50;28.30;;;;;;5053927;28;20075;-81
2022/04/15 07:58:51;;;;;;;9.43;2.70;;;22.90;28.40;;;;;;5053145;28;20556;-80
2022/04/15 08:01:19;;;;;;;7.97;2.53;;;22.10;29.00;;;;;;5054506;28;20029;-80
2022/04/15 08:03:45;;;;;;;7.65;2.28;;;22.30;29.30;;;;;;5053676;28;20112;-82
2022/04/15 08:06:11;;;;;;;8.05;3.00;;;22.50;29.00;;;;;;5054413;28;20219;-80
2022/04/15 08:08:37;;;;;;;9.40;2.78;;;22.60;28.90;;;;;;5054198;28;20108;-80
2022/04/15 08:11:03;;;;;;;10.77;2.20;;;22.20;28.80;;;;;;5035965;28;20060;-80
2022/04/15 08:13:30;;;;;;;4.18;2.40;;;21.60;28.90;;;;;;5035144;28;20057;-81
2022/04/15 08:15:55;;;;;;;8.07;2.97;;;20.80;29.40;;;;;;5056037;28;20470;-79
2022/04/15 08:18:22;;;;;;;6.53;3.40;;;20.50;30.00;;;;;;5054377;28;20032;-80
2022/04/15 08:20:50;;;;;;;7.80;2.45;;;20.40;30.00;;;;;;5053647;28;20087;-79
2022/04/15 08:23:17;;;;;;;4.95;1.88;;;20.40;30.00;;;;;;5053139;28;20033;-81
2022/04/15 08:25:44;;;;;;;5.50;2.47;;;20.20;30.00;;;;;;5052985;28;20028;-82
2022/04/15 08:28:10;;;;;;;7.15;2.03;;;20.10;30.50;;;;;;5053495;28;20595;-81
2022/04/15 08:30:37;;;;;;;2.33;1.58;;;20.20;30.50;;;;;;5052779;28;20029;-81
2022/04/15 08:33:05;;;;;;;5.00;2.00;;;20.30;30.40;;;;;;5053189;28;20072;-81
2022/04/15 08:35:32;;;;;;;3.65;1.70;;;20.20;30.20;;;;;;5053339;28;20025;-81
2022/04/15 08:37:58;;;;;;;6.32;2.08;;;20.40;30.20;;;;;;5053789;28;20547;-82
2022/04/15 08:40:27;;;;;;;8.95;2.25;;;20.60;30.10;;;;;;5036275;28;20052;-80
2022/04/15 08:42:53;;;;;;;8.13;2.38;;;21.10;30.00;;;;;;5052758;28;20040;-80
2022/04/15 08:45:25;;;;;;;6.53;2.33;;;21.70;30.40;;;;;;5051998;28;20021;-80
2022/04/15 08:47:57;;;;;;;4.75;1.98;;;21.70;29.60;;;;;;5052810;28;20029;-81
2022/04/15 08:50:23;;;;;;;9.40;1.95;;;21.60;29.50;;;;;;5053196;28;20417;-81
2022/04/15 08:52:53;;;;;;;6.50;2.40;;;21.00;29.50;;;;;;5052466;28;20110;-80
2022/04/15 08:55:21;;;;;;;7.43;3.17;;;20.50;30.40;;;;;;5052385;28;20036;-81
2022/04/15 08:57:48;;;;;;;6.55;2.25;;;20.10;30.80;;;;;;5052287;28;20040;-80
2022/04/15 09:00:14;;;;;;;4.40;1.50;;;19.50;31.40;;;;;;5052417;28;20551;-81
2022/04/15 09:02:40;;;;;;;4.30;1.57;;;18.50;32.40;;;;;;5051212;28;20091;-79
2022/04/15 09:05:07;;;;;;;4.97;2.25;;;17.50;33.70;;;;;;5034244;28;20029;-79
2022/04/15 09:07:35;;;;;;;4.90;1.80;;;16.70;34.80;;;;;;5052119;28;20053;-79
2022/04/15 09:10:02;;;;;;;6.28;2.15;;;16.10;35.70;;;;;;5034572;28;20028;-80
2022/04/15 09:12:29;;;;;;;6.78;2.08;;;15.80;36.40;;;;;;5052624;28;20087;-79
2022/04/15 09:15:01;;;;;;;6.93;2.17;;;15.60;37.10;;;;;;5052428;28;20049;-81
2022/04/15 09:17:29;;;;;;;5.22;2.28;;;15.50;37.80;;;;;;5052346;28;20135;-79
2022/04/15 09:19:59;;;;;;;4.53;2.83;;;15.30;38.10;;;;;;5033371;28;20534;-81
2022/04/15 09:22:25;;;;;;;5.68;2.33;;;15.10;38.40;;;;;;5052126;28;20037;-79
2022/04/15 09:24:51;;;;;;;3.08;1.70;;;14.90;39.00;;;;;;5052016;28;20386;-80
2022/04/15 09:27:19;;;;;;;5.50;2.20;;;14.50;39.40;;;;;;5052528;28;20499;-79
2022/04/15 09:29:46;;;;;;;4.85;2.85;;;14.30;40.10;;;;;;5034155;28;20053;-80
2022/04/15 09:32:16;;;;;;;5.68;2.15;;;14.30;40.40;;;;;;5051903;28;20021;-79
2022/04/15 09:35:03;;;;;;;5.65;2.20;;;14.60;40.30;;;;;;5032919;28;20041;-79
2022/04/15 09:37:42;;;;;;;9.02;2.63;;;14.70;40.00;;;;;;5034108;28;20087;-80
2022/04/15 09:40:25;;;;;;;4.35;2.70;;;14.60;40.30;;;;;;5051811;28;20032;-79
2022/04/15 09:42:56;;;;;;;4.82;2.00;;;14.80;40.60;;;;;;5052031;28;20375;-80
2022/04/15 09:45:30;;;;;;;5.95;2.45;;;15.00;40.40;;;;;;5052210;28;20021;-81
2022/04/15 09:48:01;;;;;;;4.10;2.33;;;15.30;40.10;;;;;;5052087;28;20032;-82
2022/04/15 09:50:37;;;;;;;8.68;2.45;;;15.60;39.90;;;;;;5050852;28;20023;-80
2022/04/15 09:53:10;;;;;;;9.80;4.43;;;15.60;39.60;;;;;;5052168;28;20029;-80
2022/04/15 09:55:40;;;;;;;4.93;2.10;;;15.60;40.10;;;;;;5051795;28;20025;-81
2022/04/15 09:58:14;;;;;;;6.70;3.03;;;15.90;39.70;;;;;;5050668;28;20027;-79
2022/04/15 10:00:41;;;;;;;3.65;1.77;;;16.00;39.20;;;;;;5051730;28;20053;-79
2022/04/15 10:03:14;;;;;;;;;;;15.80;39.20;;;;;;5052003;28;20036;-78
2022/04/15 10:05:42;;;;;;;7.65;3.10;;;15.60;39.50;;;;;;5051591;28;19911;-80
2022/04/15 10:08:09;;;;;;;7.75;2.63;;;15.50;40.30;;;;;;5051740;28;20508;-81
2022/04/15 10:10:35;;;;;;;;;;;15.40;40.30;;;;;;5052151;28;20107;-79
2022/04/15 10:13:06;;;;;;;6.43;2.38;;;14.90;40.50;;;;;;5033361;28;19905;-78
2022/04/15 10:15:33;;;;;;;5.38;2.60;;;14.60;41.70;;;;;;5051704;28;20091;-79
2022/04/15 10:18:01;;;;;;;4.07;2.13;;;14.30;42.60;;;;;;5033725;28;20147;-79
2022/04/15 10:20:28;;;;;;;5.20;2.28;;;14.20;43.20;;;;;;5051452;28;20024;-79
2022/04/15 10:22:59;;;;;;;5.53;2.50;;;14.00;43.60;;;;;;5033435;28;20098;-78
2022/04/15 10:25:25;;;;;;;8.05;2.80;;;13.90;44.00;;;;;;5033609;28;20032;-79
2022/04/15 10:27:51;;;;;;;6.10;2.75;;;13.80;44.60;;;;;;5051490;28;20021;-80
2022/04/15 10:30:19;;;;;;;6.43;3.03;;;13.50;45.00;;;;;;5050377;28;20032;-81
2022/04/15 10:32:58;;;;;;;9.02;4.45;;;13.50;45.50;;;;;;5051503;28;20492;-79
2022/04/15 10:35:30;;;;;;;5.13;2.03;;;13.40;45.90;;;;;;5051864;28;20417;-80
2022/04/15 10:38:05;;;;;;;8.00;2.55;;;13.40;45.80;;;;;;5051756;28;20108;-82
2022/04/15 10:40:32;;;;;;;6.07;2.92;;;13.50;45.80;;;;;;5051567;28;20025;-79
2022/04/15 10:43:23;;;;;;;5.85;2.33;;;13.70;45.90;;;;;;5051067;28;20035;-79
2022/04/15 10:46:13;;;;;;;27.45;4.65;;;13.70;45.80;;;;;;5050508;28;20033;-78
2022/04/15 10:48:40;;;;;;;7.72;3.03;;;13.60;46.10;;;;;;5051637;28;20044;-80
2022/04/15 10:51:34;;;;;;;23.52;12.38;;;13.70;46.50;;;;;;5055550;28;20029;-82
2022/04/15 10:54:38;;;;;;;6.13;2.20;;;13.60;46.60;;;;;;5052647;28;20037;-81
2022/04/15 10:57:14;;;;;;;7.07;3.15;;;13.50;46.40;;;;;;5055052;28;20374;-82
2022/04/15 11:02:41;;;;;;;12.15;3.60;;;13.40;47.30;;;;;;5054125;28;20048;-80
2022/04/15 11:05:12;;;;;;;6.53;2.78;;;13.20;47.50;;;;;;5055143;28;20497;-81
2022/04/15 11:07:42;;;;;;;4.22;2.75;;;13.10;48.10;;;;;;5055183;28;20060;-78
2022/04/15 11:10:38;;;;;;;4.20;2.00;;;13.10;48.30;;;;;;5055148;28;20031;-79
2022/04/15 11:13:05;;;;;;;5.10;2.00;;;13.10;48.00;;;;;;5055401;28;20025;-81
2022/04/15 11:15:58;;;;;;;3.95;2.17;;;13.00;48.10;;;;;;5054972;28;20025;-80
2022/04/15 11:18:54;;;;;;;5.28;2.13;;;13.10;48.20;;;;;;5053851;28;20047;-79
2022/04/15 11:21:29;;;;;;;3.83;2.45;;;13.00;48.30;;;;;;5036816;28;20031;-80
2022/04/15 11:24:00;;;;;;;7.45;2.22;;;13.00;48.40;;;;;;5054195;28;20029;-81
2022/04/15 11:26:28;;;;;;;4.95;1.98;;;13.10;48.50;;;;;;5054942;28;20029;-80
2022/04/15 11:28:59;;;;;;;4.50;2.13;;;13.30;48.40;;;;;;5054388;28;20401;-79
2022/04/15 11:31:29;;;;;;;6.88;3.03;;;13.40;48.00;;;;;;5054247;28;20025;-78
2022/04/15 11:34:02;;;;;;;8.75;2.75;;;13.70;47.80;;;;;;5054607;28;20539;-80
2022/04/15 11:36:30;;;;;;;6.40;2.60;;;13.80;47.30;;;;;;5053840;28;20033;-81
2022/04/15 11:39:00;;;;;;;7.28;3.35;;;14.10;47.00;;;;;;5036553;28;20052;-80
2022/04/15 11:41:26;;;;;;;3.78;2.20;;;14.30;46.40;;;;;;5054451;28;20045;-81
2022/04/15 11:44:07;;;;;;;7.65;2.65;;;14.50;46.10;;;;;;5054475;28;20039;-82
2022/04/15 11:46:36;;;;;;;5.00;2.38;;;14.60;45.50;;;;;;5054294;28;20021;-80
2022/04/15 11:49:02;;;;;;;6.00;2.67;;;14.60;45.40;;;;;;5054215;28;20025;-81
2022/04/15 11:51:28;;;;;;;4.25;2.40;;;14.60;45.30;;;;;;5054160;28;20025;-80
2022/04/15 11:53:59;;;;;;;4.18;2.60;;;14.60;45.20;;;;;;5053086;28;20039;-81
2022/04/15 11:56:29;;;;;;;6.65;3.00;;;14.60;45.20;;;;;;5054084;28;20029;-79
2022/04/15 11:58:57;;;;;;;6.63;2.15;;;14.60;45.50;;;;;;5054336;28;20101;-79
2022/04/15 12:01:27;;;;;;;5.18;3.42;;;14.40;45.30;;;;;;5034980;28;20017;-82
2022/04/15 12:03:53;;;;;;;8.07;2.72;;;14.30;45.70;;;;;;5053961;28;20041;-79
2022/04/15 12:06:20;;;;;;;4.70;2.65;;;14.30;45.80;;;;;;5054053;28;20036;-80
2022/04/15 12:08:46;;;;;;;8.45;2.72;;;14.30;45.80;;;;;;5053931;28;20044;-81
2022/04/15 12:11:13;;;;;;;6.85;2.92;;;14.10;46.00;;;;;;5052741;28;20029;-81
2022/04/15 12:13:38;;;;;;;4.75;2.30;;;13.90;46.30;;;;;;5054048;28;20025;-80
2022/04/15 12:16:04;;;;;;;8.82;2.83;;;13.90;46.30;;;;;;5035051;28;20128;-80
2022/04/15 12:18:30;;;;;;;7.70;3.22;;;13.90;46.30;;;;;;5053603;28;20032;-81
2022/04/15 12:20:56;;;;;;;7.43;2.20;;;14.10;46.20;;;;;;5053735;28;20017;-80
2022/04/15 12:23:25;;;;;;;8.05;2.97;;;14.20;45.80;;;;;;5053229;28;20044;-82
2022/04/15 12:26:07;;;;;;;7.03;2.80;;;14.20;45.70;;;;;;5035886;28;20036;-78
2022/04/15 12:31:35;;;;;;;8.38;3.15;;;14.20;45.90;;;;;;5052567;28;20032;-82
2022/04/15 12:34:03;;;;;;;5.55;3.00;;;14.20;46.10;;;;;;5053290;28;20101;-81
2022/04/15 12:36:57;;;;;;;;;;;14.20;45.90;;;;;;5054045;28;20446;-80
2022/04/15 12:39:23;;;;;;;7.47;3.00;;;14.30;45.90;;;;;;5039659;28;19919;-81
2022/04/15 12:41:49;;;;;;;10.10;3.30;;;14.40;45.90;;;;;;5034663;28;20025;-77
2022/04/15 12:44:32;;;;;;;9.82;3.22;;;14.50;45.70;;;;;;5053080;28;20471;-79
2022/04/15 12:47:00;;;;;;;11.10;3.90;;;14.60;45.60;;;;;;5053454;28;20028;-80
2022/04/15 12:49:35;;;;;;;9.55;4.18;;;14.70;45.50;;;;;;5053002;28;20075;-81
2022/04/15 12:52:15;;;;;;;5.88;3.35;;;14.70;45.20;;;;;;5053739;28;20028;-79
2022/04/15 12:55:03;;;;;;;9.55;3.80;;;14.60;45.50;;;;;;5053345;28;20355;-80
2022/04/15 12:57:33;;;;;;;9.07;4.18;;;14.40;45.80;;;;;;5053407;28;20024;-80